createdAt,value
2023-03-02T00:02:19.264Z,12.05
2023-03-02T00:04:51.983Z,11.70
2023-03-02T00:07:25.467Z,11.80
2023-03-02T00:09:56.068Z,11.77
2023-03-02T00:12:25.884Z,11.47
2023-03-02T00:14:55.425Z,11.39
2023-03-02T00:17:28.892Z,11.33
2023-03-02T00:20:10.406Z,11.27
2023-03-02T00:22:39.920Z,11.64
2023-03-02T00:25:11.264Z,11.72
2023-03-02T00:27:40.905Z,11.62
2023-03-02T00:30:12.395Z,11.53
2023-03-02T00:32:43.425Z,11.22
2023-03-02T00:35:13.133Z,11.45
2023-03-02T00:37:42.423Z,11.62
2023-03-02T00:40:12.888Z,11.39
2023-03-02T00:42:42.449Z,11.29
2023-03-02T00:45:12.519Z,11.43
2023-03-02T00:47:43.718Z,11.00
2023-03-02T00:50:13.521Z,11.37
2023-03-02T00:52:42.941Z,11.48
2023-03-02T00:55:12.610Z,11.31
2023-03-02T00:57:41.901Z,11.58
2023-03-02T01:00:12.640Z,11.78
2023-03-02T01:02:44.803Z,11.55
2023-03-02T01:05:18.979Z,11.06
2023-03-02T01:07:49.638Z,10.99
2023-03-02T01:10:19.190Z,10.79
2023-03-02T01:12:48.483Z,11.13
2023-03-02T01:15:17.998Z,10.66
2023-03-02T01:17:48.596Z,10.63
2023-03-02T01:20:19.418Z,10.15
2023-03-02T01:22:48.870Z,10.53
2023-03-02T01:25:18.500Z,10.85
2023-03-02T01:27:47.765Z,10.86
2023-03-02T01:30:18.761Z,10.76
2023-03-02T01:32:49.475Z,10.70
2023-03-02T01:35:19.205Z,10.38
2023-03-02T01:37:48.570Z,10.50
2023-03-02T01:40:18.085Z,10.54
2023-03-02T01:42:58.244Z,10.71
2023-03-02T01:45:47.895Z,10.75
2023-03-02T01:48:28.841Z,10.35
2023-03-02T01:50:59.959Z,10.29
2023-03-02T01:53:33.313Z,10.40
2023-03-02T01:56:05.806Z,10.04
2023-03-02T01:58:37.973Z,10.25
2023-03-02T02:01:15.461Z,10.53
2023-03-02T02:03:49.270Z,10.13
2023-03-02T02:06:24.713Z,10.55
2023-03-02T02:08:57.505Z,10.63
2023-03-02T02:11:27.201Z,10.55
2023-03-02T02:13:59.486Z,10.60
2023-03-02T02:16:30.786Z,10.64
2023-03-02T02:19:02.593Z,10.66
2023-03-02T02:21:32.854Z,10.63
2023-03-02T02:24:11.120Z,10.45
2023-03-02T02:26:45.850Z,10.72
2023-03-02T02:29:39.240Z,10.55
2023-03-02T02:32:46.344Z,10.54
2023-03-02T02:35:45.297Z,10.41
2023-03-02T02:38:21.820Z,10.65
2023-03-02T02:40:56.577Z,10.61
2023-03-02T02:43:33.787Z,10.26
2023-03-02T02:46:04.183Z,10.43
2023-03-02T02:48:35.380Z,10.49
2023-03-02T02:51:07.323Z,10.05
2023-03-02T02:53:43.969Z,9.96
2023-03-02T02:56:14.430Z,9.87
2023-03-02T02:58:52.177Z,9.95
2023-03-02T03:01:26.282Z,10.11
2023-03-02T03:04:01.961Z,10.12
2023-03-02T03:06:38.593Z,9.96
2023-03-02T03:09:09.818Z,9.72
2023-03-02T03:11:46.325Z,9.97
2023-03-02T03:14:19.892Z,9.94
2023-03-02T03:16:53.409Z,10.12
2023-03-02T03:19:25.456Z,9.81
2023-03-02T03:21:57.524Z,9.81
2023-03-02T03:24:29.958Z,9.65
2023-03-02T03:27:01.561Z,9.80
2023-03-02T03:29:34.878Z,9.97
2023-03-02T03:37:01.880Z,9.95
2023-03-02T03:39:35.958Z,9.97
2023-03-02T03:42:07.024Z,9.61
2023-03-02T03:44:38.140Z,10.24
2023-03-02T03:47:08.208Z,10.28
2023-03-02T03:49:37.862Z,10.17
2023-03-02T03:52:09.101Z,10.10
2023-03-02T03:54:38.670Z,10.06
2023-03-02T03:57:12.252Z,10.03
2023-03-02T03:59:43.511Z,10.33
2023-03-02T04:02:13.269Z,10.51
2023-03-02T04:04:46.385Z,10.45
2023-03-02T04:07:19.587Z,10.46
2023-03-02T04:09:49.552Z,10.26
2023-03-02T04:12:19.478Z,10.18
2023-03-02T04:14:54.502Z,10.35
2023-03-02T04:17:24.308Z,10.25
2023-03-02T04:19:53.884Z,9.87
2023-03-02T04:22:23.819Z,9.99
2023-03-02T04:24:54.153Z,10.03
2023-03-02T04:27:24.083Z,10.37
2023-03-02T04:29:54.783Z,10.46
2023-03-02T04:32:24.534Z,10.01
2023-03-02T04:34:57.169Z,9.69
2023-03-02T04:37:27.998Z,9.98
2023-03-02T04:39:57.630Z,10.15
2023-03-02T04:42:27.164Z,9.78
2023-03-02T04:44:58.106Z,9.87
2023-03-02T04:47:28.074Z,10.16
2023-03-02T04:49:57.664Z,10.16
2023-03-02T04:52:27.205Z,10.47
2023-03-02T04:54:56.701Z,10.67
2023-03-02T04:57:26.503Z,10.15
2023-03-02T04:59:57.664Z,10.65
2023-03-02T05:02:27.435Z,10.41
2023-03-02T05:04:56.757Z,10.36
2023-03-02T05:07:26.282Z,10.47
2023-03-02T05:09:55.769Z,10.29
2023-03-02T05:12:25.380Z,10.05
2023-03-02T05:14:54.566Z,10.34
2023-03-02T05:17:25.528Z,10.44
2023-03-02T05:19:54.822Z,10.38
2023-03-02T05:22:24.371Z,10.69
2023-03-02T05:24:53.634Z,10.66
2023-03-02T05:27:23.224Z,10.50
2023-03-02T05:29:52.564Z,10.29
2023-03-02T05:32:22.183Z,10.41
2023-03-02T05:34:52.979Z,10.46
2023-03-02T05:37:22.549Z,10.59
2023-03-02T05:39:51.939Z,10.33
2023-03-02T05:42:21.494Z,10.27
2023-03-02T05:44:50.799Z,10.26
2023-03-02T05:47:20.446Z,9.85
2023-03-02T05:49:51.031Z,10.36
2023-03-02T05:52:20.646Z,10.11
2023-03-02T05:54:49.956Z,10.58
2023-03-02T05:57:19.752Z,10.59
2023-03-02T05:59:51.033Z,10.13
2023-03-02T06:02:21.035Z,10.32
2023-03-02T06:04:51.753Z,9.88
2023-03-02T06:07:21.364Z,10.46
2023-03-02T06:09:51.171Z,10.52
2023-03-02T06:12:21.367Z,10.83
2023-03-02T06:14:50.838Z,10.80
2023-03-02T06:17:20.513Z,10.61
2023-03-02T06:19:51.181Z,10.67
2023-03-02T06:22:20.869Z,10.88
2023-03-02T06:24:50.154Z,10.53
2023-03-02T06:27:19.660Z,10.64
2023-03-02T06:29:49.049Z,10.75
2023-03-02T06:32:18.924Z,10.74
2023-03-02T06:34:48.312Z,10.99
2023-03-02T06:37:19.607Z,10.68
2023-03-02T06:39:48.858Z,11.11
2023-03-02T06:42:18.533Z,10.74
2023-03-02T06:44:48.503Z,11.04
2023-03-02T06:47:18.881Z,11.32
2023-03-02T06:49:48.371Z,11.34
2023-03-02T06:52:19.611Z,11.84
2023-03-02T06:54:49.245Z,11.37
2023-03-02T06:57:19.925Z,11.64
2023-03-02T06:59:49.187Z,11.22
2023-03-02T07:02:18.833Z,11.47
2023-03-02T07:04:48.156Z,11.53
2023-03-02T07:07:19.243Z,11.05
2023-03-02T07:09:48.750Z,11.26
2023-03-02T07:12:18.336Z,12.04
2023-03-02T07:14:47.806Z,12.19
2023-03-02T07:17:17.375Z,12.16
2023-03-02T07:19:46.971Z,11.56
2023-03-02T07:22:16.506Z,11.86
2023-03-02T07:24:47.218Z,11.74
2023-03-02T07:27:19.984Z,11.64
2023-03-02T07:30:40.273Z,12.55
2023-03-02T07:33:10.610Z,11.60
2023-03-02T07:35:40.235Z,12.15
2023-03-02T07:38:10.081Z,12.16
2023-03-02T07:40:47.049Z,13.13
2023-03-02T07:43:22.955Z,13.50
2023-03-02T07:45:59.549Z,12.89
2023-03-02T07:48:33.605Z,12.85
2023-03-02T07:51:07.917Z,13.08
2023-03-02T07:53:38.814Z,13.77
2023-03-02T07:56:11.771Z,13.05
2023-03-02T07:58:41.366Z,13.03
2023-03-02T08:01:10.865Z,13.52
2023-03-02T08:03:40.453Z,13.11
2023-03-02T08:06:11.750Z,12.94
2023-03-02T08:08:41.535Z,12.94
2023-03-02T08:11:14.124Z,13.40
2023-03-02T08:13:49.695Z,13.54
2023-03-02T08:16:19.464Z,13.58
2023-03-02T08:18:49.468Z,14.48
2023-03-02T08:21:20.843Z,13.81
2023-03-02T08:23:50.753Z,13.97
2023-03-02T08:26:22.319Z,13.90
2023-03-02T08:28:52.088Z,13.61
2023-03-02T08:31:21.596Z,14.36
2023-03-02T08:33:51.212Z,15.60
2023-03-02T08:36:21.794Z,14.68
2023-03-02T08:38:51.971Z,14.68
2023-03-02T08:41:24.588Z,14.08
2023-03-02T08:43:54.550Z,14.50
2023-03-02T08:46:24.371Z,15.27
2023-03-02T08:48:54.022Z,14.68
2023-03-02T08:51:25.178Z,15.77
2023-03-02T08:53:56.704Z,15.76
2023-03-02T08:56:38.609Z,15.96
2023-03-02T08:59:17.303Z,15.51
2023-03-02T09:01:50.370Z,15.11
2023-03-02T09:04:29.785Z,15.39
2023-03-02T09:07:01.099Z,16.21
2023-03-02T09:09:30.924Z,16.80
2023-03-02T09:12:02.629Z,16.64
2023-03-02T09:14:32.172Z,15.97
2023-03-02T09:17:01.644Z,16.34
2023-03-02T09:19:31.276Z,16.33
2023-03-02T09:22:00.763Z,16.62
2023-03-02T09:24:30.986Z,16.37
2023-03-02T09:27:01.862Z,16.26
2023-03-02T09:29:31.438Z,16.52
2023-03-02T09:32:01.370Z,16.63
2023-03-02T09:34:31.165Z,17.48
2023-03-02T09:37:00.632Z,18.46
2023-03-02T09:39:30.364Z,18.29
2023-03-02T09:42:42.934Z,17.98
2023-03-02T09:45:37.250Z,18.70
2023-03-02T09:48:16.093Z,17.80
2023-03-02T09:50:57.217Z,18.88
2023-03-02T09:53:38.436Z,20.20
2023-03-02T09:56:17.158Z,19.22
2023-03-02T09:58:56.188Z,19.59
2023-03-02T10:01:37.308Z,20.17
2023-03-02T10:04:16.449Z,19.30
2023-03-02T10:06:47.131Z,19.38
2023-03-02T10:09:16.619Z,20.73
2023-03-02T10:12:05.218Z,21.10
2023-03-02T10:14:42.774Z,22.24
2023-03-02T10:17:31.473Z,21.88
2023-03-02T10:20:06.017Z,21.51
2023-03-02T10:22:39.863Z,21.24
2023-03-02T10:25:23.408Z,22.33
2023-03-02T10:27:57.715Z,22.60
2023-03-02T10:30:33.192Z,23.21
2023-03-02T10:33:10.993Z,24.71
2023-03-02T10:35:45.268Z,23.96
2023-03-02T10:38:16.933Z,25.74
2023-03-02T10:40:50.056Z,28.04
2023-03-02T10:43:22.134Z,29.02
2023-03-02T10:46:03.028Z,28.87
2023-03-02T10:48:32.734Z,27.32
2023-03-02T10:51:02.343Z,28.37
2023-03-02T10:53:31.983Z,28.69
2023-03-02T10:56:01.404Z,30.46
2023-03-02T10:58:33.867Z,32.66
2023-03-02T11:01:07.292Z,30.56
2023-03-02T11:03:36.910Z,32.46
2023-03-02T11:06:20.608Z,33.20
2023-03-02T11:09:01.066Z,31.68
2023-03-02T11:11:30.930Z,30.25
2023-03-02T11:14:10.513Z,31.90
2023-03-02T11:16:41.182Z,32.11
2023-03-02T11:19:16.678Z,32.73
2023-03-02T11:21:55.017Z,32.41
2023-03-02T11:24:31.309Z,34.80
2023-03-02T11:27:07.994Z,35.18
2023-03-02T11:29:43.195Z,34.87
2023-03-02T11:32:19.156Z,32.51
2023-03-02T11:34:53.328Z,32.62
2023-03-02T11:37:24.410Z,30.88
2023-03-02T11:40:06.313Z,32.77
2023-03-02T11:42:37.913Z,33.82
2023-03-02T11:45:20.683Z,31.87
2023-03-02T11:48:02.425Z,31.84
2023-03-02T11:50:35.548Z,29.31
2023-03-02T11:53:09.071Z,31.08
2023-03-02T11:55:45.693Z,34.00
2023-03-02T11:58:20.747Z,35.66
2023-03-02T12:00:52.206Z,34.45
2023-03-02T12:03:36.919Z,33.82
2023-03-02T12:06:08.810Z,33.61
2023-03-02T12:08:41.178Z,35.49
2023-03-02T12:11:34.714Z,34.12
2023-03-02T12:14:05.643Z,32.78
2023-03-02T12:16:41.037Z,31.73
2023-03-02T12:19:26.644Z,32.63
2023-03-02T12:22:02.213Z,33.97
2023-03-02T12:24:33.597Z,33.22
2023-03-02T12:27:05.843Z,33.22
2023-03-02T12:29:43.118Z,34.61
2023-03-02T12:32:15.395Z,34.33
2023-03-02T12:34:54.391Z,31.63
2023-03-02T12:37:28.610Z,29.04
2023-03-02T12:40:31.216Z,30.56
2023-03-02T12:43:26.807Z,33.29
2023-03-02T12:46:23.036Z,33.98
2023-03-02T12:49:05.342Z,32.87
2023-03-02T12:51:52.246Z,35.40
2023-03-02T12:54:24.408Z,36.20
2023-03-02T12:57:09.011Z,34.19
2023-03-02T12:59:38.692Z,34.66
2023-03-02T13:02:19.715Z,36.91
2023-03-02T13:04:55.709Z,36.87
2023-03-02T13:07:28.840Z,34.53
2023-03-02T13:10:00.993Z,32.80
2023-03-02T13:12:30.869Z,35.73
2023-03-02T13:15:01.360Z,37.23
2023-03-02T13:17:33.260Z,37.68
2023-03-02T13:20:06.249Z,38.75
2023-03-02T13:22:37.162Z,38.83
2023-03-02T13:25:21.767Z,36.01
2023-03-02T13:27:54.621Z,37.61
2023-03-02T13:30:25.023Z,35.30
2023-03-02T13:32:59.628Z,36.11
2023-03-02T13:35:31.353Z,35.91
2023-03-02T13:38:07.354Z,35.93
2023-03-02T13:40:44.866Z,38.21
2023-03-02T13:43:32.028Z,38.37
2023-03-02T13:46:03.883Z,35.55
2023-03-02T13:48:34.082Z,37.59
2023-03-02T13:51:15.410Z,38.95
2023-03-02T13:53:52.873Z,37.13
2023-03-02T13:56:26.138Z,34.74
2023-03-02T13:58:55.456Z,35.58
2023-03-02T14:01:25.414Z,36.75
2023-03-02T14:03:56.452Z,34.74
2023-03-02T14:06:27.006Z,35.49
2023-03-02T14:08:57.772Z,34.52
2023-03-02T14:11:28.316Z,33.56
2023-03-02T14:13:57.795Z,34.78
2023-03-02T14:16:28.173Z,35.13
2023-03-02T14:18:57.766Z,35.80
2023-03-02T14:21:28.164Z,35.01
2023-03-02T14:23:59.669Z,33.53
2023-03-02T14:26:34.795Z,34.40
2023-03-02T14:29:09.018Z,33.92
2023-03-02T14:31:38.577Z,32.64
2023-03-02T14:34:07.893Z,32.79
2023-03-02T14:36:38.442Z,34.35
2023-03-02T14:39:21.241Z,34.00
2023-03-02T14:41:54.091Z,33.83
2023-03-02T14:44:24.227Z,35.16
2023-03-02T14:46:54.336Z,33.92
2023-03-02T14:49:23.839Z,31.98
2023-03-02T14:52:00.468Z,31.72
2023-03-02T14:54:37.718Z,30.46
2023-03-02T14:57:14.612Z,31.12
2023-03-02T14:59:44.033Z,30.89
2023-03-02T15:02:24.681Z,30.30
2023-03-02T15:04:56.201Z,30.21
2023-03-02T15:07:28.437Z,30.88
2023-03-02T15:09:59.822Z,29.36
2023-03-02T15:12:29.451Z,29.35
2023-03-02T15:14:59.011Z,29.14
2023-03-02T15:17:28.792Z,29.80
2023-03-02T15:19:58.561Z,30.42
2023-03-02T15:22:28.312Z,30.97
2023-03-02T15:24:59.258Z,31.57
2023-03-02T15:27:28.975Z,30.74
2023-03-02T15:29:58.286Z,30.68
2023-03-02T15:32:28.007Z,29.63
2023-03-02T15:34:57.538Z,29.26
2023-03-02T15:37:28.351Z,26.51
2023-03-02T15:40:00.340Z,27.41
2023-03-02T15:42:29.984Z,27.71
2023-03-02T15:44:59.444Z,27.36
2023-03-02T15:47:29.210Z,27.19
2023-03-02T15:49:58.544Z,27.49
2023-03-02T15:52:28.726Z,26.60
2023-03-02T15:54:59.600Z,24.56
2023-03-02T15:57:31.827Z,23.96
2023-03-02T16:00:02.123Z,21.21
2023-03-02T16:02:37.551Z,20.36
2023-03-02T16:05:07.721Z,19.70
2023-03-02T16:07:38.212Z,19.78
2023-03-02T16:10:15.331Z,20.25
2023-03-02T16:12:46.770Z,18.91
2023-03-02T16:15:16.354Z,18.04
2023-03-02T16:17:48.474Z,18.41
2023-03-02T16:20:18.117Z,18.81
2023-03-02T16:22:48.186Z,18.39
2023-03-02T16:25:19.127Z,18.21
2023-03-02T16:27:50.068Z,18.09
2023-03-02T16:30:21.969Z,18.13
2023-03-02T16:32:52.835Z,17.95
2023-03-02T16:35:22.058Z,17.72
2023-03-02T16:37:51.787Z,17.55
2023-03-02T16:40:22.950Z,17.52
2023-03-02T16:42:52.687Z,17.47
2023-03-02T16:45:23.124Z,16.17
2023-03-02T16:47:52.701Z,17.06
2023-03-02T16:50:22.310Z,16.59
2023-03-02T16:52:51.948Z,16.80
2023-03-02T16:55:22.760Z,16.85
2023-03-02T16:57:52.467Z,16.56
2023-03-02T17:00:23.571Z,16.29
2023-03-02T17:02:54.671Z,14.91
2023-03-02T17:05:24.829Z,16.08
2023-03-02T17:07:57.055Z,15.42
2023-03-02T17:10:28.492Z,14.87
2023-03-02T17:12:58.037Z,15.59
2023-03-02T17:15:27.497Z,15.51
2023-03-02T17:17:57.212Z,15.51
2023-03-02T17:20:26.904Z,14.36
2023-03-02T17:22:56.795Z,14.01
2023-03-02T17:25:27.738Z,15.08
2023-03-02T17:27:57.488Z,14.86
2023-03-02T17:30:26.871Z,14.43
2023-03-02T17:32:56.492Z,14.67
2023-03-02T17:35:25.849Z,14.45
2023-03-02T17:37:55.565Z,14.11
2023-03-02T17:40:25.135Z,13.69
2023-03-02T17:42:57.830Z,13.89
2023-03-02T17:45:29.173Z,13.16
2023-03-02T17:47:59.828Z,14.24
2023-03-02T17:50:31.926Z,14.19
2023-03-02T17:53:02.292Z,14.00
2023-03-02T17:55:31.696Z,14.13
2023-03-02T17:58:02.635Z,14.26
2023-03-02T18:00:32.265Z,14.18
2023-03-02T18:03:02.055Z,13.95
2023-03-02T18:05:31.588Z,13.86
2023-03-02T18:08:01.325Z,14.18
2023-03-02T18:10:30.684Z,14.11
2023-03-02T18:13:01.686Z,13.72
2023-03-02T18:15:31.571Z,13.60
2023-03-02T18:18:01.591Z,13.26
2023-03-02T18:20:31.168Z,13.59
2023-03-02T18:23:00.919Z,13.62
2023-03-02T18:25:30.537Z,14.12
2023-03-02T18:28:03.708Z,12.96
2023-03-02T18:30:36.138Z,12.81
2023-03-02T18:33:05.947Z,12.01
2023-03-02T18:35:35.803Z,12.56
2023-03-02T18:38:05.497Z,12.68
2023-03-02T18:40:35.073Z,12.78
2023-03-02T18:43:06.296Z,12.34
2023-03-02T18:45:35.770Z,11.75
2023-03-02T18:48:06.222Z,11.96
2023-03-02T18:50:35.634Z,12.51
2023-03-02T18:53:05.423Z,11.81
2023-03-02T18:55:34.931Z,12.95
2023-03-02T18:58:05.926Z,12.63
2023-03-02T19:00:37.803Z,12.68
2023-03-02T19:03:07.439Z,12.02
2023-03-02T19:05:36.923Z,12.44
2023-03-02T19:08:08.006Z,11.87
2023-03-02T19:10:38.546Z,12.10
2023-03-02T19:13:11.685Z,12.34
2023-03-02T19:15:41.400Z,11.91
2023-03-02T19:18:16.244Z,12.14
2023-03-02T19:20:47.499Z,11.97
2023-03-02T19:23:18.363Z,12.02
2023-03-02T19:25:48.325Z,12.16
2023-03-02T19:28:19.377Z,11.62
2023-03-02T19:30:48.899Z,11.70
2023-03-02T19:33:19.517Z,11.64
2023-03-02T19:35:48.956Z,11.70
2023-03-02T19:38:19.352Z,11.84
2023-03-02T19:40:49.187Z,11.71
2023-03-02T19:43:20.433Z,11.81
2023-03-02T19:45:50.159Z,11.36
2023-03-02T19:48:20.023Z,12.06
2023-03-02T19:50:50.082Z,11.90
2023-03-02T19:53:19.774Z,12.13
2023-03-02T19:55:51.512Z,12.41
2023-03-02T19:58:23.611Z,11.93
2023-03-02T20:00:53.256Z,12.44
2023-03-02T20:03:22.981Z,12.32
2023-03-02T20:05:52.795Z,12.61
2023-03-02T20:08:22.849Z,12.52
2023-03-02T20:10:52.509Z,12.44
2023-03-02T20:13:26.018Z,12.66
2023-03-02T20:15:56.550Z,12.26
2023-03-02T20:18:27.540Z,12.78
2023-03-02T20:20:57.222Z,11.58
2023-03-02T20:23:27.500Z,12.17
2023-03-02T20:25:56.769Z,12.12
2023-03-02T20:28:28.103Z,12.35
2023-03-02T20:30:59.795Z,13.26
2023-03-02T20:33:33.048Z,11.84
2023-03-02T20:36:04.125Z,11.85
2023-03-02T20:38:36.830Z,12.29
2023-03-02T20:41:06.968Z,11.93
2023-03-02T20:43:38.235Z,11.20
2023-03-02T20:46:10.068Z,11.39
2023-03-02T20:48:40.134Z,11.16
2023-03-02T20:51:09.489Z,12.16
2023-03-02T20:53:39.058Z,12.11
2023-03-02T20:56:08.697Z,12.20
2023-03-02T20:58:41.310Z,11.89
2023-03-02T21:01:10.834Z,12.13
2023-03-02T21:03:41.207Z,12.73
2023-03-02T21:06:11.422Z,12.77
2023-03-02T21:08:41.666Z,11.49
2023-03-02T21:11:15.722Z,12.27
2023-03-02T21:13:49.154Z,12.44
2023-03-02T21:16:22.853Z,12.50
2023-03-02T21:18:52.594Z,12.29
2023-03-02T21:21:32.498Z,12.32
2023-03-02T21:24:05.728Z,12.44
2023-03-02T21:26:36.536Z,12.31
2023-03-02T21:29:09.532Z,12.45
2023-03-02T21:31:39.139Z,11.40
2023-03-02T21:34:08.844Z,11.58
2023-03-02T21:36:38.272Z,10.98
2023-03-02T21:39:08.418Z,11.29
2023-03-02T21:41:38.076Z,10.90
2023-03-02T21:44:09.202Z,11.11
2023-03-02T21:46:39.787Z,11.39
2023-03-02T21:49:09.805Z,11.69
2023-03-02T21:51:39.196Z,10.55
2023-03-02T21:54:09.226Z,11.25
2023-03-02T21:56:38.735Z,10.89
2023-03-02T21:59:09.931Z,10.99
2023-03-02T22:01:39.421Z,11.46
2023-03-02T22:04:09.451Z,10.49
2023-03-02T22:06:38.818Z,10.84
2023-03-02T22:09:08.355Z,12.20
2023-03-02T22:11:39.237Z,12.29
2023-03-02T22:14:14.769Z,12.28
2023-03-02T22:16:47.534Z,12.46
2023-03-02T22:19:29.291Z,11.67
2023-03-02T22:22:00.192Z,12.34
2023-03-02T22:24:31.521Z,11.55
2023-03-02T22:27:03.112Z,11.25
2023-03-02T22:29:39.334Z,11.71
2023-03-02T22:32:19.025Z,11.89
2023-03-02T22:34:51.359Z,11.76
2023-03-02T22:37:22.384Z,11.60
2023-03-02T22:39:55.677Z,11.34
2023-03-02T22:42:27.044Z,11.52
2023-03-02T22:45:12.981Z,10.84
2023-03-02T22:47:42.622Z,11.15
2023-03-02T22:50:22.076Z,10.89
2023-03-02T22:52:52.009Z,11.37
2023-03-02T22:55:36.871Z,11.40
2023-03-02T22:58:31.022Z,11.37
2023-03-02T23:01:03.254Z,11.17
2023-03-02T23:03:39.967Z,11.24
2023-03-02T23:06:31.527Z,10.88
2023-03-02T23:09:03.203Z,11.05
2023-03-02T23:11:37.679Z,11.13
2023-03-02T23:14:19.131Z,10.44
2023-03-02T23:16:53.872Z,11.29
2023-03-02T23:19:23.734Z,10.59
2023-03-02T23:21:53.388Z,11.40
2023-03-02T23:24:22.713Z,11.04
2023-03-02T23:26:54.046Z,11.59
2023-03-02T23:29:23.604Z,10.94
2023-03-02T23:31:54.716Z,11.12
2023-03-02T23:34:24.548Z,11.46
2023-03-02T23:36:54.091Z,11.38
2023-03-02T23:39:23.422Z,11.91
2023-03-02T23:41:53.065Z,11.72
2023-03-02T23:44:22.414Z,12.16
2023-03-02T23:46:53.583Z,11.33
2023-03-02T23:49:22.860Z,11.63
2023-03-02T23:51:52.696Z,11.95
2023-03-02T23:54:22.123Z,12.08
2023-03-02T23:56:51.753Z,12.34
2023-03-02T23:59:21.128Z,10.42
